Domov               UVHVVR             MKGP            O straneh              
ZDRAVSTVENO VARSTVO RASTLIN
  MREŽA AGROMET. POSTAJ
 ► PROGNOSTIČNA OBVESTILA
AGROMETEOROLOŠKI PODATKI -
ARSO
OBVLADOVANJE TVEGANJ ZARADI
NEUGODNIH VREMENSKIH RAZMER
  ► NARAVNE NESREČE
  ► SUŠA/MOČA
  ► NAMAKANJE
  ► ŽLED (gozdarstvo)
KARTOGRAFSKI PRIKAZI
SPLETNE POVEZAVE
PROJEKTI IN PUBLIKACIJE

AGROMETEOROLOŠKA MREŽA: VREMENSKE POSTAJE IN FENOLOŠKA OPAZOVANJA

Pregled podatkov za lokacijo Resje, meteorološka postaja 39326

Pregled senzorjev na lokaciji

ID Ime Zadnja
vrednost
Datum
zadnje
spremembe
Tip
senzorja
4304 Omočenost lista (U) 0 U 25.3.2019 00:00 A730WET
2437 Padavine (mm) 0 mm 25.3.2019 00:00 Rain-O-Matic
2439 Relativna vlaga 2 m (% RH) 67,42 % RH 25.3.2019 00:00 50YA
2438 Temperatura 2 m (°C) 8,86 °C 25.3.2019 00:00 50YA

Pregled podatkov zadnjih 24 ur

Zap.
št.
Datum in čas Resje
Omočenost
lista
Padavine Relativna
vlaga
2
m
Temperatura
2
m
1 25.3.2019 00:00
2 24.3.2019 23:30
3 24.3.2019 23:00 0 0 67,4 8,9
4 24.3.2019 22:30 0 0 67 8,9
5 24.3.2019 22:00 0 0 65,3 9,3
6 24.3.2019 21:30 1 0 66,5 9,3
7 24.3.2019 21:00 1 0 64,7 9,7
8 24.3.2019 20:30 0 0 61 10,7
9 24.3.2019 20:00 0 0 57,8 11,1
10 24.3.2019 19:30 0 0 52,9 12,6
11 24.3.2019 19:00 0 0 48,4 13,6
12 24.3.2019 18:30 0 0 40,5 16
13 24.3.2019 18:00 0 0 36,2 17,8
14 24.3.2019 17:30 0 0 34,1 18,8
15 24.3.2019 17:00 0 0 32 19,6
16 24.3.2019 16:30 0 0 31,8 19,8
17 24.3.2019 16:00 0 0 32 19,8
18 24.3.2019 15:30 0 0 32,6 19,7
19 24.3.2019 15:00 0 0 33,1 19,8
20 24.3.2019 14:30 0 0 32,3 19,7
21 24.3.2019 14:00 0 0 29,1 19,3
22 24.3.2019 13:30 0 0 29,4 18,9
23 24.3.2019 13:00 0 0 31,7 18,8
24 24.3.2019 12:30 0 0 31,7 18,6
25 24.3.2019 12:00 0 0 35,5 18
26 24.3.2019 11:30 0 0 39,5 17,6
27 24.3.2019 11:00 0 0 43,3 16,8
28 24.3.2019 10:30 0 0 46 15,6
29 24.3.2019 10:00 0 0 51,3 14,2
30 24.3.2019 09:30 0 0 52,8 13,7
31 24.3.2019 09:00 0 0 58,2 11,2
32 24.3.2019 08:30 0 0 64,9 9,1
33 24.3.2019 08:00 0 0 70 7,5
34 24.3.2019 07:30 0 0 74,1 6,1
35 24.3.2019 07:00 4 0 80 4,4
36 24.3.2019 06:30 10 0 82,9 3,7
37 24.3.2019 06:00 10 0 82,7 3,7
38 24.3.2019 05:30 8 0 81,1 4,1
39 24.3.2019 05:00 7 0 80,4 4,2
40 24.3.2019 04:30 7 0 80,3 4,3
41 24.3.2019 04:00 9 0 79,2 4,5
42 24.3.2019 03:30 10 0 80,2 4,4
43 24.3.2019 03:00 10 0 80,8 4,3
44 24.3.2019 02:30 9 0 77,3 5
45 24.3.2019 02:00 6 0 76,3 5,3
46 24.3.2019 01:30 7 0 75,6 5,6
47 24.3.2019 01:00 10 0 76,4 5,4
48 24.3.2019 00:30 4 0 73 6,4
© 2011 Ministrstvo za kmetijstvo, gozdarstvo in prehrano. Vse pravice pridržane.